Time;durP1;ratioP1;P1;durP2;ratioP2;P2;SDS_P1;SDS_P2;PMS_P1;PMS_P2;Temp;Humidity;BMP_temperature;BMP_pressure;BME280_temperature;BME280_humidity;BME280_pressure;Samples;Min_cycle;Max_cycle;Signal;HPM_P1;HPM_P2
2022/05/09 00:01:55;;;;;;;11.98;3.28;;;;;;;;;;5052432;28;20116;-58
2022/05/09 00:04:21;;;;;;;11.80;3.05;;;;;;;;;;5048544;28;20107;-59
2022/05/09 00:06:48;;;;;;;14.15;3.30;;;;;;;;;;5064279;28;20490;-58
2022/05/09 00:09:14;;;;;;;13.88;3.50;;;;;;;;;;5065823;28;20084;-61
2022/05/09 00:11:40;;;;;;;16.80;2.70;;;;;;;;;;5053442;28;20132;-59
2022/05/09 00:14:07;;;;;;;14.02;2.97;;;;;;;;;;5047722;28;20380;-58
2022/05/09 00:16:34;;;;;;;10.48;2.92;;;;;;;;;;5064114;28;20036;-58
2022/05/09 00:19:03;;;;;;;8.77;2.42;;;;;;;;;;5046192;28;20129;-58
2022/05/09 00:21:31;;;;;;;16.98;2.70;;;;;;;;;;5060760;28;20043;-58
2022/05/09 00:23:57;;;;;;;15.82;3.17;;;;;;;;;;5047024;28;20453;-58
2022/05/09 00:26:27;;;;;;;13.15;3.05;;;;;;;;;;5064178;28;20063;-58
2022/05/09 00:28:54;;;;;;;11.57;2.78;;;;;;;;;;5065281;28;20048;-58
2022/05/09 00:31:20;;;;;;;12.63;2.95;;;;;;;;;;5052016;28;20071;-59
2022/05/09 00:33:46;;;;;;;13.27;3.22;;;;;;;;;;5063886;28;20047;-59
2022/05/09 00:36:12;;;;;;;14.63;3.35;;;;;;;;;;5047879;28;20470;-58
2022/05/09 00:38:38;;;;;;;14.23;3.17;;;;;;;;;;5046287;28;20071;-58
2022/05/09 00:43:49;;;;;;;14.13;3.53;;;;;;;;;;5063746;28;20044;-58
2022/05/09 00:46:15;;;;;;;14.45;3.67;;;;;;;;;;5047745;28;20067;-59
2022/05/09 00:48:41;;;;;;;15.10;3.53;;;;;;;;;;5048395;28;20033;-58
2022/05/09 00:51:08;;;;;;;16.95;3.22;;;;;;;;;;5051648;28;20056;-58
2022/05/09 00:53:36;;;;;;;9.70;3.00;;;;;;;;;;5047603;28;20040;-58
2022/05/09 00:56:05;;;;;;;14.23;3.40;;;;;;;;;;5064821;28;20073;-58
2022/05/09 00:58:38;;;;;;;14.38;3.72;;;;;;;;;;5062951;28;20053;-58
2022/05/09 01:01:05;;;;;;;10.25;3.15;;;;;;;;;;5057184;28;20048;-58
2022/05/09 01:03:46;;;;;;;17.10;3.92;;;;;;;;;;5060709;28;20123;-58
2022/05/09 01:06:13;;;;;;;13.15;3.72;;;;;;;;;;5065825;28;20494;-58
2022/05/09 01:08:39;;;;;;;12.82;3.30;;;;;;;;;;5049832;28;20044;-58
2022/05/09 01:11:09;;;;;;;13.90;3.10;;;;;;;;;;5063736;28;20508;-58
2022/05/09 01:16:02;;;;;;;12.35;3.67;;;;;;;;;;5024753;22;20103;-58
2022/05/09 01:18:28;;;;;;;18.50;3.55;;;;;;;;;;5026191;28;20045;-58
2022/05/09 01:20:55;;;;;;;14.85;3.80;;;;;;;;;;5026031;28;20034;-58
2022/05/09 01:23:21;;;;;;;16.60;3.75;;;;;;;;;;5026384;28;20124;-58
2022/05/09 01:25:47;;;;;;;14.68;4.03;;;;;;;;;;5026084;28;20108;-58
2022/05/09 01:28:13;;;;;;;17.75;3.92;;;;;;;;;;5025808;28;20486;-58
2022/05/09 01:30:44;;;;;;;13.00;2.85;;;;;;;;;;5026393;28;20441;-58
2022/05/09 05:08:55;;;;;;;13.50;4.47;;;;;;;;;;3762145;23;20535;-58
2022/05/09 05:11:21;;;;;;;14.13;4.40;;;;;;;;;;4962927;28;20375;-59
2022/05/09 05:13:47;;;;;;;12.85;3.47;;;;;;;;;;4964734;28;20070;-59
2022/05/09 05:16:13;;;;;;;21.30;4.10;;;;;;;;;;4967307;28;20046;-58
2022/05/09 05:18:39;;;;;;;19.13;4.10;;;;;;;;;;4966510;28;20785;-59
2022/05/09 05:21:11;;;;;;;15.88;3.95;;;;;;;;;;4965518;28;20133;-59
2022/05/09 05:23:38;;;;;;;10.82;3.80;;;;;;;;;;4966591;28;20042;-59
2022/05/09 05:26:05;;;;;;;18.80;4.40;;;;;;;;;;4967597;28;20038;-59
2022/05/09 05:28:34;;;;;;;14.68;4.22;;;;;;;;;;4967339;28;20046;-58
2022/05/09 05:31:13;;;;;;;18.30;4.55;;;;;;;;;;4967023;28;20386;-58
2022/05/09 05:33:39;;;;;;;13.00;4.57;;;;;;;;;;4961022;28;20047;-59
2022/05/09 05:36:06;;;;;;;23.60;4.47;;;;;;;;;;4963770;28;20527;-59
2022/05/09 05:38:32;;;;;;;19.85;4.60;;;;;;;;;;4958003;28;20039;-60
2022/05/09 05:40:58;;;;;;;28.08;5.72;;;;;;;;;;4962306;28;20396;-59
2022/05/09 05:43:24;;;;;;;19.27;4.85;;;;;;;;;;4960874;28;20559;-59
2022/05/09 05:45:55;;;;;;;21.67;4.75;;;;;;;;;;4962121;28;20135;-58
2022/05/09 05:48:21;;;;;;;20.20;4.38;;;;;;;;;;4964205;28;20155;-58
2022/05/09 05:50:47;;;;;;;20.95;4.97;;;;;;;;;;4967357;28;20094;-58
2022/05/09 05:53:14;;;;;;;13.18;4.20;;;;;;;;;;4965943;28;20097;-60
2022/05/09 05:55:40;;;;;;;16.95;5.10;;;;;;;;;;4965820;28;20135;-58
2022/05/09 05:58:06;;;;;;;25.42;4.97;;;;;;;;;;4966379;28;20054;-59
2022/05/09 06:00:32;;;;;;;13.52;4.13;;;;;;;;;;4960575;28;20035;-58
2022/05/09 06:02:58;;;;;;;28.75;5.30;;;;;;;;;;4965614;28;20042;-58
2022/05/09 06:05:24;;;;;;;21.33;5.05;;;;;;;;;;4966028;28;20139;-58
2022/05/09 06:07:55;;;;;;;14.68;4.65;;;;;;;;;;4962297;28;20039;-58
2022/05/09 06:10:22;;;;;;;16.75;4.70;;;;;;;;;;4966012;28;20059;-58
2022/05/09 06:12:48;;;;;;;23.58;5.32;;;;;;;;;;4965067;28;20204;-58
2022/05/09 06:15:25;;;;;;;15.20;4.82;;;;;;;;;;4965070;28;20055;-60
2022/05/09 06:17:51;;;;;;;14.00;4.25;;;;;;;;;;4955347;28;20047;-58
2022/05/09 06:20:17;;;;;;;16.98;4.80;;;;;;;;;;4955982;28;20129;-58
2022/05/09 06:22:43;;;;;;;15.48;4.75;;;;;;;;;;4956579;28;20122;-58
2022/05/09 06:25:11;;;;;;;18.55;5.53;;;;;;;;;;4963021;28;20122;-59
2022/05/09 06:27:38;;;;;;;19.03;4.67;;;;;;;;;;4966793;28;20485;-59
2022/05/09 06:30:05;;;;;;;25.10;5.60;;;;;;;;;;4965487;28;20047;-60
2022/05/09 06:32:31;;;;;;;17.90;4.72;;;;;;;;;;4966101;28;20038;-58
2022/05/09 06:34:57;;;;;;;19.48;5.15;;;;;;;;;;4966555;28;20122;-58
2022/05/09 06:37:25;;;;;;;21.55;5.55;;;;;;;;;;4964696;28;20133;-58
2022/05/09 06:39:53;;;;;;;20.38;4.78;;;;;;;;;;4966424;28;20497;-58
2022/05/09 06:42:19;;;;;;;13.60;4.78;;;;;;;;;;4966393;28;20247;-58
2022/05/09 06:44:46;;;;;;;17.17;4.22;;;;;;;;;;4966643;28;20691;-58
2022/05/09 06:47:13;;;;;;;24.35;4.80;;;;;;;;;;4966200;28;20054;-59
2022/05/09 06:49:39;;;;;;;23.23;6.28;;;;;;;;;;4966084;28;20562;-59
2022/05/09 06:52:05;;;;;;;14.38;4.70;;;;;;;;;;4969884;28;20046;-59
2022/05/09 06:54:31;;;;;;;11.55;3.95;;;;;;;;;;4969655;28;20038;-58
2022/05/09 06:56:57;;;;;;;12.68;4.13;;;;;;;;;;4970221;28;20046;-58
2022/05/09 06:59:23;;;;;;;17.17;4.93;;;;;;;;;;4969603;28;20050;-59
2022/05/09 07:01:50;;;;;;;15.32;4.60;;;;;;;;;;4969971;28;20042;-58
2022/05/09 07:04:17;;;;;;;19.27;4.55;;;;;;;;;;4969496;28;20165;-59
2022/05/09 07:06:43;;;;;;;11.13;4.03;;;;;;;;;;4969954;28;20047;-58
2022/05/09 07:09:10;;;;;;;16.90;4.28;;;;;;;;;;4968753;28;20078;-58
2022/05/09 07:11:37;;;;;;;15.00;4.68;;;;;;;;;;4969620;28;20074;-59
2022/05/09 07:14:03;;;;;;;22.73;4.65;;;;;;;;;;4970254;28;20042;-58
2022/05/09 07:16:29;;;;;;;17.55;4.53;;;;;;;;;;4969343;28;20038;-59
2022/05/09 07:18:55;;;;;;;15.45;4.70;;;;;;;;;;4969692;28;20409;-59
2022/05/09 07:21:21;;;;;;;17.90;3.97;;;;;;;;;;4969607;28;20042;-58
2022/05/09 07:23:47;;;;;;;17.25;4.55;;;;;;;;;;4969036;28;20054;-59
2022/05/09 07:26:14;;;;;;;19.80;4.70;;;;;;;;;;4969525;28;20042;-59
2022/05/09 07:28:42;;;;;;;19.83;4.50;;;;;;;;;;4969267;28;20373;-59
2022/05/09 07:31:08;;;;;;;18.65;5.18;;;;;;;;;;4969412;28;20061;-59
2022/05/09 07:33:35;;;;;;;37.13;5.15;;;;;;;;;;4969034;28;20554;-58
2022/05/09 07:36:01;;;;;;;12.55;3.92;;;;;;;;;;4968099;28;20113;-58
2022/05/09 07:38:27;;;;;;;18.60;4.38;;;;;;;;;;4967825;28;20043;-59
2022/05/09 07:40:54;;;;;;;10.75;4.30;;;;;;;;;;4968948;28;20125;-59
2022/05/09 07:43:23;;;;;;;17.13;4.97;;;;;;;;;;4968682;28;20085;-59
2022/05/09 07:45:51;;;;;;;25.55;4.60;;;;;;;;;;4964407;28;20058;-59
2022/05/09 07:48:19;;;;;;;10.52;3.78;;;;;;;;;;4968973;28;20057;-59
2022/05/09 07:50:45;;;;;;;16.60;4.75;;;;;;;;;;4969106;28;20416;-59
2022/05/09 07:53:14;;;;;;;15.40;4.60;;;;;;;;;;4968259;28;20039;-59
2022/05/09 07:55:42;;;;;;;37.38;4.30;;;;;;;;;;4969425;28;20462;-59
2022/05/09 07:58:09;;;;;;;18.83;3.90;;;;;;;;;;4968474;28;20166;-59
2022/05/09 08:00:36;;;;;;;15.50;3.88;;;;;;;;;;4968267;28;20389;-59
2022/05/09 08:03:03;;;;;;;16.58;3.60;;;;;;;;;;4969152;28;20045;-58
2022/05/09 08:05:29;;;;;;;12.90;3.58;;;;;;;;;;4968740;28;20149;-58
2022/05/09 08:07:55;;;;;;;12.48;3.55;;;;;;;;;;4967602;28;20062;-59
2022/05/09 08:10:22;;;;;;;12.15;3.28;;;;;;;;;;4968796;28;20047;-59
2022/05/09 08:12:48;;;;;;;13.77;3.15;;;;;;;;;;4969181;28;20039;-59
2022/05/09 08:15:15;;;;;;;14.52;3.42;;;;;;;;;;4968753;28;20050;-60
2022/05/09 08:17:44;;;;;;;12.55;3.60;;;;;;;;;;4968567;28;20130;-59
2022/05/09 08:20:12;;;;;;;12.30;2.97;;;;;;;;;;4968694;28;20097;-59
2022/05/09 08:22:38;;;;;;;18.50;4.32;;;;;;;;;;4967931;28;20049;-59
2022/05/09 08:25:06;;;;;;;15.45;3.70;;;;;;;;;;4968023;28;20465;-58
2022/05/09 08:27:32;;;;;;;11.50;3.28;;;;;;;;;;4968606;28;20054;-58
2022/05/09 08:29:58;;;;;;;14.27;3.42;;;;;;;;;;4968527;28;20043;-58
2022/05/09 08:32:25;;;;;;;16.50;3.92;;;;;;;;;;4968294;28;20042;-59
2022/05/09 08:34:51;;;;;;;11.18;3.00;;;;;;;;;;4968130;28;20412;-58
2022/05/09 08:37:19;;;;;;;14.05;3.35;;;;;;;;;;4963447;28;20047;-59
2022/05/09 08:39:46;;;;;;;14.03;2.80;;;;;;;;;;4968101;28;20038;-59
2022/05/09 08:42:15;;;;;;;13.52;2.50;;;;;;;;;;4968082;28;20515;-59
2022/05/09 08:44:49;;;;;;;11.68;3.00;;;;;;;;;;4968418;28;20039;-59
2022/05/09 08:47:22;;;;;;;10.45;2.47;;;;;;;;;;4967865;28;20081;-59
2022/05/09 08:49:48;;;;;;;10.77;3.00;;;;;;;;;;4968265;28;20039;-58
2022/05/09 08:52:14;;;;;;;9.73;2.35;;;;;;;;;;4967126;28;20112;-61
2022/05/09 08:54:40;;;;;;;10.25;2.75;;;;;;;;;;4967761;28;20085;-59
2022/05/09 08:57:10;;;;;;;11.00;2.60;;;;;;;;;;4967963;28;20381;-60
2022/05/09 08:59:39;;;;;;;17.98;2.60;;;;;;;;;;4967449;28;20046;-59
2022/05/09 09:02:12;;;;;;;10.52;2.30;;;;;;;;;;4967998;28;20101;-59
2022/05/09 09:04:39;;;;;;;8.00;3.00;;;;;;;;;;4966806;28;20043;-59
2022/05/09 09:07:12;;;;;;;10.32;2.60;;;;;;;;;;4967173;28;20043;-61
2022/05/09 09:09:39;;;;;;;12.43;2.63;;;;;;;;;;4966978;28;20130;-59
2022/05/09 09:12:12;;;;;;;9.70;2.38;;;;;;;;;;4966451;28;20050;-60
2022/05/09 09:14:47;;;;;;;9.80;2.85;;;;;;;;;;4966749;28;20027;-59
2022/05/09 09:17:27;;;;;;;8.60;1.98;;;;;;;;;;4967588;28;20129;-59
2022/05/09 09:20:12;;;;;;;8.27;2.78;;;;;;;;;;4967561;28;20059;-59
2022/05/09 09:22:39;;;;;;;8.60;2.13;;;;;;;;;;4966895;28;20564;-59
2022/05/09 09:25:12;;;;;;;11.30;2.03;;;;;;;;;;4967110;28;20050;-59
2022/05/09 09:27:42;;;;;;;11.82;2.28;;;;;;;;;;4966934;28;20512;-59
2022/05/09 09:30:11;;;;;;;10.20;2.38;;;;;;;;;;4967070;28;20555;-59
2022/05/09 09:32:39;;;;;;;10.07;2.40;;;;;;;;;;4967111;28;20662;-59
2022/05/09 09:35:10;;;;;;;12.25;2.50;;;;;;;;;;4967339;28;20046;-59
2022/05/09 09:37:43;;;;;;;10.57;2.83;;;;;;;;;;4966034;28;20070;-59
2022/05/09 09:40:09;;;;;;;16.38;2.90;;;;;;;;;;4967104;28;20043;-60
2022/05/09 09:42:35;;;;;;;13.90;2.53;;;;;;;;;;4967064;28;20046;-61
2022/05/09 09:45:03;;;;;;;7.40;2.10;;;;;;;;;;4967769;28;20130;-58
2022/05/09 09:47:30;;;;;;;8.82;2.13;;;;;;;;;;4966874;28;20515;-59
2022/05/09 09:50:15;;;;;;;8.88;2.00;;;;;;;;;;4967391;28;20094;-59
2022/05/09 09:52:43;;;;;;;8.05;2.13;;;;;;;;;;4963960;28;20039;-59
2022/05/09 09:55:20;;;;;;;12.20;1.85;;;;;;;;;;4966925;28;20042;-59
2022/05/09 09:57:48;;;;;;;9.00;2.53;;;;;;;;;;4966071;28;20047;-59
2022/05/09 10:00:19;;;;;;;8.90;2.03;;;;;;;;;;4966545;28;20058;-61
2022/05/09 10:02:45;;;;;;;9.70;2.42;;;;;;;;;;4966979;28;20049;-59
2022/05/09 10:05:13;;;;;;;9.70;2.45;;;;;;;;;;4966727;28;20074;-59
2022/05/09 10:07:43;;;;;;;12.98;2.22;;;;;;;;;;4966189;28;20441;-59
2022/05/09 10:10:17;;;;;;;7.00;2.15;;;;;;;;;;4966560;28;20669;-59
2022/05/09 10:12:47;;;;;;;12.52;2.30;;;;;;;;;;4964012;28;20039;-59
2022/05/09 10:15:28;;;;;;;6.20;1.77;;;;;;;;;;4966583;28;20054;-59
2022/05/09 10:17:55;;;;;;;10.15;2.10;;;;;;;;;;4966714;28;20900;-59
2022/05/09 10:20:27;;;;;;;10.98;2.28;;;;;;;;;;4966525;28;20551;-59
2022/05/09 10:26:01;;;;;;;8.88;2.50;;;;;;;;;;4968338;28;20042;-59
2022/05/09 10:28:30;;;;;;;10.77;2.42;;;;;;;;;;4970441;28;20073;-59
2022/05/09 10:31:01;;;;;;;11.93;2.67;;;;;;;;;;4970763;28;20074;-59
2022/05/09 10:33:35;;;;;;;7.93;1.95;;;;;;;;;;4970319;28;20042;-59
2022/05/09 10:36:08;;;;;;;8.32;2.08;;;;;;;;;;4969553;28;20504;-59
2022/05/09 10:38:38;;;;;;;13.80;2.28;;;;;;;;;;4969896;28;20057;-59
2022/05/09 10:41:10;;;;;;;11.40;1.95;;;;;;;;;;4970749;28;20047;-59
2022/05/09 10:43:43;;;;;;;10.95;2.20;;;;;;;;;;4970507;28;20511;-59
2022/05/09 10:46:11;;;;;;;8.40;2.30;;;;;;;;;;4970121;28;20050;-59
2022/05/09 10:48:45;;;;;;;5.80;2.00;;;;;;;;;;4970299;28;20047;-59
2022/05/09 10:51:15;;;;;;;11.23;2.30;;;;;;;;;;4969716;28;20041;-59
2022/05/09 10:53:45;;;;;;;6.72;1.98;;;;;;;;;;4969639;28;20050;-59
2022/05/09 10:56:12;;;;;;;12.02;2.25;;;;;;;;;;4968722;28;20051;-59
2022/05/09 10:58:38;;;;;;;10.95;2.45;;;;;;;;;;4969359;28;20220;-57
2022/05/09 11:01:08;;;;;;;10.40;2.33;;;;;;;;;;4970754;28;20042;-57
2022/05/09 11:03:35;;;;;;;10.95;2.20;;;;;;;;;;4970347;28;20180;-57
2022/05/09 11:06:17;;;;;;;13.35;2.30;;;;;;;;;;4969894;28;20476;-57
2022/05/09 11:09:04;;;;;;;9.75;2.33;;;;;;;;;;4968122;28;20072;-57
2022/05/09 11:11:35;;;;;;;8.93;1.83;;;;;;;;;;4968015;28;20408;-57
2022/05/09 11:14:07;;;;;;;6.50;1.80;;;;;;;;;;4969723;28;20047;-57
2022/05/09 11:16:52;;;;;;;11.65;2.33;;;;;;;;;;4967356;28;20182;-57
2022/05/09 11:19:29;;;;;;;10.02;2.15;;;;;;;;;;4980650;28;20524;-57
2022/05/09 11:22:01;;;;;;;5.85;1.80;;;;;;;;;;4962164;28;20109;-57
2022/05/09 11:24:33;;;;;;;7.25;1.98;;;;;;;;;;4960647;28;20525;-57
2022/05/09 11:27:18;;;;;;;6.82;2.20;;;;;;;;;;4959930;28;20042;-58
2022/05/09 11:29:52;;;;;;;14.90;2.25;;;;;;;;;;4969185;28;20038;-57
2022/05/09 11:32:22;;;;;;;10.80;2.33;;;;;;;;;;4967766;28;20073;-57
2022/05/09 11:34:51;;;;;;;6.68;2.15;;;;;;;;;;4968860;28;20038;-57
2022/05/09 11:37:26;;;;;;;10.00;2.20;;;;;;;;;;4967230;28;20130;-57
2022/05/09 11:40:09;;;;;;;16.02;2.85;;;;;;;;;;4968753;28;20047;-58
2022/05/09 11:45:39;;;;;;;10.77;2.47;;;;;;;;;;4967503;28;20039;-58
2022/05/09 11:48:15;;;;;;;10.55;2.65;;;;;;;;;;4968542;28;20122;-59
2022/05/09 11:50:46;;;;;;;18.85;2.22;;;;;;;;;;4969126;28;20097;-58
2022/05/09 11:53:13;;;;;;;7.90;2.33;;;;;;;;;;4968637;28;20047;-59
2022/05/09 11:55:41;;;;;;;9.70;3.05;;;;;;;;;;4965378;28;20043;-59
2022/05/09 11:58:07;;;;;;;10.07;2.30;;;;;;;;;;4969208;28;20212;-59
2022/05/09 12:00:33;;;;;;;9.55;2.70;;;;;;;;;;4969174;28;20126;-58
2022/05/09 12:03:01;;;;;;;8.43;2.67;;;;;;;;;;4969325;28;20077;-59
2022/05/09 12:05:27;;;;;;;8.05;2.13;;;;;;;;;;4968716;28;20551;-58
2022/05/09 12:07:56;;;;;;;9.00;2.63;;;;;;;;;;4968120;28;20073;-58
2022/05/09 12:10:28;;;;;;;7.75;2.40;;;;;;;;;;4968348;28;20101;-59
2022/05/09 12:12:56;;;;;;;7.15;2.65;;;;;;;;;;4968755;28;20051;-58
2022/05/09 12:15:22;;;;;;;11.27;2.53;;;;;;;;;;4967293;28;20043;-59
2022/05/09 12:18:08;;;;;;;12.50;2.75;;;;;;;;;;4968758;28;20051;-58
2022/05/09 12:20:37;;;;;;;10.43;2.40;;;;;;;;;;4968555;28;20093;-59
2022/05/09 12:23:06;;;;;;;9.35;3.20;;;;;;;;;;4968016;28;20054;-58
2022/05/09 12:25:40;;;;;;;8.13;2.35;;;;;;;;;;4968429;28;20086;-59
2022/05/09 12:28:20;;;;;;;9.40;2.70;;;;;;;;;;4968488;28;20062;-59
2022/05/09 12:30:49;;;;;;;75.32;5.28;;;;;;;;;;4964267;28;20046;-59
2022/05/09 12:33:22;;;;;;;13.60;3.28;;;;;;;;;;4967621;28;20089;-59
2022/05/09 12:35:49;;;;;;;8.63;3.00;;;;;;;;;;4968589;28;20038;-59
2022/05/09 12:38:21;;;;;;;6.78;2.92;;;;;;;;;;4967397;28;20086;-58
2022/05/09 12:40:47;;;;;;;8.90;2.75;;;;;;;;;;4968391;28;20081;-58
2022/05/09 12:43:13;;;;;;;12.38;2.60;;;;;;;;;;4967185;28;20086;-59
2022/05/09 12:45:40;;;;;;;8.50;2.53;;;;;;;;;;4964215;28;20042;-59
2022/05/09 12:48:09;;;;;;;13.10;2.43;;;;;;;;;;4967147;28;20041;-59
2022/05/09 12:50:39;;;;;;;7.47;2.25;;;;;;;;;;4967930;28;20476;-59
2022/05/09 12:53:09;;;;;;;8.02;2.00;;;;;;;;;;4966401;28;20051;-59
2022/05/09 12:55:52;;;;;;;8.48;2.53;;;;;;;;;;4964945;28;20061;-59
2022/05/09 12:58:27;;;;;;;8.48;2.13;;;;;;;;;;4960150;28;20055;-59
2022/05/09 13:00:56;;;;;;;10.45;2.33;;;;;;;;;;4960722;28;20046;-58
2022/05/09 13:03:22;;;;;;;15.07;2.40;;;;;;;;;;4960501;28;20480;-58
2022/05/09 13:05:48;;;;;;;8.32;2.38;;;;;;;;;;4962542;28;20046;-56
2022/05/09 13:08:15;;;;;;;10.52;2.40;;;;;;;;;;4966588;28;20101;-59
2022/05/09 13:10:45;;;;;;;10.45;1.92;;;;;;;;;;4967419;28;20050;-59
2022/05/09 13:13:15;;;;;;;8.30;2.10;;;;;;;;;;4967437;28;20057;-58
2022/05/09 13:15:43;;;;;;;7.13;1.95;;;;;;;;;;4961985;28;20300;-59
2022/05/09 13:18:12;;;;;;;9.27;2.10;;;;;;;;;;4966116;28;20093;-58
2022/05/09 13:20:47;;;;;;;9.52;2.60;;;;;;;;;;4967231;28;20520;-59
2022/05/09 13:23:14;;;;;;;10.90;2.20;;;;;;;;;;4958190;28;20069;-58
2022/05/09 13:25:41;;;;;;;9.25;2.10;;;;;;;;;;4963396;28;20043;-60
2022/05/09 13:28:11;;;;;;;8.07;2.20;;;;;;;;;;4959066;28;20496;-59
2022/05/09 13:30:38;;;;;;;7.05;2.42;;;;;;;;;;4958621;28;20050;-59
2022/05/09 13:33:05;;;;;;;7.90;2.45;;;;;;;;;;4962407;28;20043;-59
2022/05/09 13:35:34;;;;;;;5.70;1.92;;;;;;;;;;4961704;28;20043;-59
2022/05/09 13:38:17;;;;;;;6.15;1.80;;;;;;;;;;4965852;28;20045;-59
2022/05/09 13:40:43;;;;;;;12.27;1.90;;;;;;;;;;4966423;28;20532;-59
2022/05/09 13:43:13;;;;;;;121.85;6.88;;;;;;;;;;4967113;28;20125;-59
2022/05/09 13:45:39;;;;;;;19.75;2.35;;;;;;;;;;4967021;28;20120;-60
2022/05/09 13:48:08;;;;;;;4.72;1.63;;;;;;;;;;4967601;28;20043;-60
2022/05/09 13:50:36;;;;;;;6.47;1.35;;;;;;;;;;4967221;28;20146;-59
2022/05/09 13:53:04;;;;;;;7.82;2.10;;;;;;;;;;4966728;28;20054;-59
2022/05/09 13:55:32;;;;;;;6.43;1.83;;;;;;;;;;4966402;28;20049;-59
2022/05/09 13:58:00;;;;;;;9.60;1.95;;;;;;;;;;4966933;28;20074;-59
2022/05/09 14:00:30;;;;;;;15.90;2.08;;;;;;;;;;4966340;28;20054;-59
2022/05/09 14:02:58;;;;;;;11.88;2.30;;;;;;;;;;4966673;28;20039;-59
2022/05/09 14:05:27;;;;;;;7.75;1.90;;;;;;;;;;4966575;28;20039;-59
2022/05/09 14:07:55;;;;;;;7.35;1.20;;;;;;;;;;4966044;28;20049;-59
2022/05/09 14:10:41;;;;;;;11.82;1.73;;;;;;;;;;4966055;28;20061;-59
2022/05/09 14:13:25;;;;;;;5.40;1.77;;;;;;;;;;4967052;28;20043;-60
2022/05/09 14:15:53;;;;;;;9.55;1.98;;;;;;;;;;4963126;28;20042;-59
2022/05/09 14:18:19;;;;;;;10.40;2.00;;;;;;;;;;4965245;28;20039;-60
2022/05/09 14:20:47;;;;;;;6.25;1.38;;;;;;;;;;4966600;28;20108;-59
2022/05/09 14:23:15;;;;;;;8.85;1.55;;;;;;;;;;4966016;28;20043;-59
2022/05/09 14:31:27;;;;;;;4.80;1.30;;;;;;;;;;4961795;28;20103;-60
2022/05/09 14:33:54;;;;;;;4.90;1.58;;;;;;;;;;4956461;28;20039;-59
2022/05/09 14:36:33;;;;;;;7.45;1.40;;;;;;;;;;4960570;28;20623;-59
2022/05/09 14:39:00;;;;;;;5.78;1.30;;;;;;;;;;4967086;28;20130;-59
2022/05/09 14:41:40;;;;;;;7.13;1.40;;;;;;;;;;4965567;28;20114;-59
2022/05/09 14:44:19;;;;;;;7.43;1.60;;;;;;;;;;4966743;28;20083;-60
2022/05/09 14:46:55;;;;;;;9.98;1.67;;;;;;;;;;4966264;28;20480;-59
2022/05/09 14:49:21;;;;;;;5.47;1.35;;;;;;;;;;4966694;28;20105;-58
2022/05/09 14:51:57;;;;;;;15.95;2.20;;;;;;;;;;4966056;28;20050;-58
2022/05/09 14:54:24;;;;;;;10.43;1.73;;;;;;;;;;4965814;28;20042;-58
2022/05/09 14:59:44;;;;;;;7.97;1.60;;;;;;;;;;4965121;28;20062;-59
2022/05/09 15:02:18;;;;;;;6.50;1.55;;;;;;;;;;4966483;28;20094;-58
2022/05/09 15:04:45;;;;;;;8.52;1.52;;;;;;;;;;4965799;28;20527;-58
2022/05/09 15:07:11;;;;;;;8.75;1.50;;;;;;;;;;4965192;28;20531;-58
2022/05/09 15:09:37;;;;;;;9.43;1.80;;;;;;;;;;4965257;28;20053;-59
2022/05/09 15:12:11;;;;;;;7.78;1.40;;;;;;;;;;4965367;28;20509;-58
2022/05/09 15:14:38;;;;;;;53.75;4.78;;;;;;;;;;4968297;28;20043;-59
2022/05/09 15:17:04;;;;;;;9.45;2.03;;;;;;;;;;4967504;28;20042;-59
2022/05/09 15:19:30;;;;;;;10.13;1.65;;;;;;;;;;4969089;28;20043;-59
2022/05/09 15:21:57;;;;;;;10.17;1.87;;;;;;;;;;4967487;28;20070;-59
2022/05/09 15:24:23;;;;;;;5.43;1.53;;;;;;;;;;4964978;28;20047;-58
2022/05/09 15:26:51;;;;;;;6.35;1.77;;;;;;;;;;4968031;28;20044;-58
2022/05/09 15:29:17;;;;;;;8.48;1.40;;;;;;;;;;4967930;28;20054;-58
2022/05/09 15:31:43;;;;;;;7.70;1.60;;;;;;;;;;4966511;28;20500;-59
2022/05/09 15:34:11;;;;;;;4.85;1.85;;;;;;;;;;4967361;28;20034;-59
2022/05/09 15:36:37;;;;;;;5.28;1.42;;;;;;;;;;4966954;28;20039;-59
2022/05/09 15:39:04;;;;;;;7.05;1.30;;;;;;;;;;4968476;28;20045;-58
2022/05/09 15:41:30;;;;;;;5.27;1.20;;;;;;;;;;4968534;28;20046;-59
2022/05/09 15:43:58;;;;;;;8.60;1.88;;;;;;;;;;4967763;28;20051;-58
2022/05/09 15:46:27;;;;;;;7.20;1.35;;;;;;;;;;4968113;28;20047;-58
2022/05/09 15:48:54;;;;;;;5.35;1.42;;;;;;;;;;4968209;28;20489;-58
2022/05/09 15:51:20;;;;;;;5.63;1.37;;;;;;;;;;4968869;28;20049;-58
2022/05/09 15:53:47;;;;;;;103.78;5.20;;;;;;;;;;4969221;28;20038;-59
2022/05/09 15:56:15;;;;;;;4.15;1.17;;;;;;;;;;4968413;28;20054;-58
2022/05/09 15:58:44;;;;;;;7.18;1.30;;;;;;;;;;4963599;28;20058;-58
2022/05/09 16:01:12;;;;;;;7.07;1.25;;;;;;;;;;4969008;28;20186;-59
2022/05/09 16:03:38;;;;;;;6.63;1.10;;;;;;;;;;4968874;28;20532;-59
2022/05/09 16:11:37;;;;;;;6.95;1.20;;;;;;;;;;4965629;28;20533;-60
2022/05/09 16:14:05;;;;;;;4.15;1.15;;;;;;;;;;4967908;28;20043;-58
2022/05/09 16:16:33;;;;;;;5.95;1.15;;;;;;;;;;4970933;28;20117;-58
2022/05/09 16:19:02;;;;;;;5.30;1.20;;;;;;;;;;4968705;28;20086;-58
2022/05/09 16:21:29;;;;;;;3.50;1.08;;;;;;;;;;4967532;28;20054;-59
2022/05/09 16:23:55;;;;;;;9.30;1.23;;;;;;;;;;4968334;28;20057;-58
2022/05/09 16:26:24;;;;;;;7.90;1.27;;;;;;;;;;4968004;28;20283;-59
2022/05/09 16:28:50;;;;;;;8.63;1.30;;;;;;;;;;4966946;28;20114;-58
2022/05/09 16:31:20;;;;;;;6.30;0.97;;;;;;;;;;4967220;28;20148;-59
2022/05/09 16:33:47;;;;;;;9.13;1.15;;;;;;;;;;4968629;28;20039;-58
2022/05/09 16:36:13;;;;;;;5.97;1.40;;;;;;;;;;4966268;28;20497;-59
2022/05/09 16:38:40;;;;;;;3.53;1.10;;;;;;;;;;4966723;28;20054;-59
2022/05/09 16:41:08;;;;;;;7.03;1.58;;;;;;;;;;4963799;28;20077;-59
2022/05/09 16:43:35;;;;;;;6.22;0.90;;;;;;;;;;4967663;28;20094;-58
2022/05/09 16:46:02;;;;;;;7.65;1.08;;;;;;;;;;4964292;28;20524;-58
2022/05/09 16:48:29;;;;;;;4.88;1.13;;;;;;;;;;4966877;28;20495;-59
2022/05/09 16:50:55;;;;;;;7.15;1.13;;;;;;;;;;4965700;28;20476;-58
2022/05/09 16:53:21;;;;;;;7.15;1.50;;;;;;;;;;4967034;28;20039;-58
2022/05/09 16:55:50;;;;;;;8.35;1.30;;;;;;;;;;4963784;28;20043;-58
2022/05/09 16:58:19;;;;;;;8.70;1.30;;;;;;;;;;4964642;28;20090;-58
2022/05/09 17:00:48;;;;;;;6.53;1.50;;;;;;;;;;4965570;28;20497;-58
2022/05/09 17:03:16;;;;;;;3.63;1.00;;;;;;;;;;4965739;28;20492;-59
2022/05/09 17:05:42;;;;;;;5.35;0.90;;;;;;;;;;4965399;28;20058;-58
2022/05/09 17:08:08;;;;;;;8.00;1.40;;;;;;;;;;4965202;28;20051;-58
2022/05/09 17:10:35;;;;;;;4.00;1.35;;;;;;;;;;4965909;28;20081;-57
2022/05/09 17:13:01;;;;;;;4.00;1.30;;;;;;;;;;4966309;28;20049;-58
2022/05/09 17:15:31;;;;;;;8.52;1.70;;;;;;;;;;4965096;28;20039;-57
2022/05/09 17:17:57;;;;;;;5.90;1.42;;;;;;;;;;4963814;28;20105;-57
2022/05/09 17:20:26;;;;;;;8.35;1.40;;;;;;;;;;4961535;28;20138;-58
2022/05/09 17:22:53;;;;;;;4.88;1.05;;;;;;;;;;4963945;28;20051;-58
2022/05/09 17:25:21;;;;;;;5.75;1.60;;;;;;;;;;4964163;28;20047;-58
2022/05/09 17:27:48;;;;;;;6.50;1.50;;;;;;;;;;4964005;28;20055;-58
2022/05/09 17:30:17;;;;;;;11.48;1.52;;;;;;;;;;4964584;28;20054;-60
2022/05/09 17:32:44;;;;;;;3.15;1.27;;;;;;;;;;4964509;28;20505;-57
2022/05/09 17:37:15;;;;;;;4.78;1.27;;;;;;;;;;4961752;28;20496;-58
2022/05/09 17:37:57;;;;;;;5.32;1.40;;;;;;;;;;4964937;28;20130;-57
2022/05/09 17:40:24;;;;;;;4.68;1.00;;;;;;;;;;4964936;28;20059;-58
2022/05/09 17:42:51;;;;;;;6.95;1.90;;;;;;;;;;4965104;28;20046;-57
2022/05/09 17:45:17;;;;;;;45.17;3.85;;;;;;;;;;4964985;28;20053;-58
2022/05/09 17:47:43;;;;;;;204.63;14.25;;;;;;;;;;4964828;28;20038;-57
2022/05/09 17:50:09;;;;;;;124.22;9.32;;;;;;;;;;4965019;28;20076;-58
2022/05/09 17:52:36;;;;;;;49.58;4.22;;;;;;;;;;4963117;28;20056;-58
2022/05/09 17:55:02;;;;;;;18.40;3.70;;;;;;;;;;4965497;28;20050;-57
2022/05/09 17:57:29;;;;;;;8.63;1.80;;;;;;;;;;4964806;28;20409;-58
2022/05/09 17:59:56;;;;;;;8.40;2.05;;;;;;;;;;4965163;28;20066;-57
2022/05/09 18:02:25;;;;;;;8.77;1.35;;;;;;;;;;4964354;28;20054;-57
2022/05/09 18:04:52;;;;;;;8.50;1.38;;;;;;;;;;4965105;28;20082;-57
2022/05/09 18:07:19;;;;;;;8.18;1.50;;;;;;;;;;4964020;28;20162;-57
2022/05/09 18:09:45;;;;;;;5.38;1.55;;;;;;;;;;4964206;28;20535;-57
2022/05/09 18:12:15;;;;;;;6.57;1.63;;;;;;;;;;4964185;28;20746;-57
2022/05/09 18:14:43;;;;;;;8.82;1.95;;;;;;;;;;4964536;28;20070;-57
2022/05/09 18:17:17;;;;;;;4.22;1.30;;;;;;;;;;4963438;28;20042;-57
2022/05/09 18:19:46;;;;;;;5.70;1.40;;;;;;;;;;4964766;28;20051;-58
2022/05/09 18:22:12;;;;;;;8.00;1.65;;;;;;;;;;4964433;28;20043;-57
2022/05/09 18:24:39;;;;;;;7.85;1.60;;;;;;;;;;4964469;28;20054;-57
2022/05/09 18:27:06;;;;;;;8.53;1.87;;;;;;;;;;4964838;28;20082;-56
2022/05/09 18:29:33;;;;;;;10.35;1.85;;;;;;;;;;4964642;28;20290;-57
2022/05/09 18:32:00;;;;;;;14.50;2.22;;;;;;;;;;4963844;28;20054;-57
2022/05/09 18:34:29;;;;;;;6.63;1.80;;;;;;;;;;4963542;28;20043;-58
2022/05/09 18:37:00;;;;;;;22.77;2.47;;;;;;;;;;4963644;28;20047;-57
2022/05/09 18:39:29;;;;;;;24.95;2.10;;;;;;;;;;4964601;28;20054;-57
2022/05/09 18:41:55;;;;;;;11.63;2.13;;;;;;;;;;4964677;28;20686;-57
2022/05/09 18:44:24;;;;;;;13.48;2.10;;;;;;;;;;4963982;28;20061;-57
2022/05/09 18:46:51;;;;;;;9.65;1.70;;;;;;;;;;4964712;28;20066;-58